Terminal Aerodrome Forecast
Issued by NWS Charleston, WV

Current Version | Previous Version | Text Only | Print | Product List | Glossary Off
Versions: 1 2 3 4 5 6 7 8 9 10 11 12 13 14 15 16 17 18 19 20 21 22 23 24 25

000
FTUS41 KRLX 240539
TAFBKW
TAF
KBKW 240539Z 2406/2506 13016G32KT P6SM OVC018
     FM240900 12021G32KT P6SM -SHRA OVC015
      TEMPO 2412/2414 4SM -SHRA OVC008
     FM241400 12015G27KT P6SM -SHRA OVC008
     FM242200 11013KT P6SM -SHRA OVC008=

USA.gov is the U.S. government's official web portal to all federal, state and local government web resources and services.